Time;durP1;ratioP1;P1;durP2;ratioP2;P2;SDS_P1;SDS_P2;PMS_P1;PMS_P2;Temp;Humidity;BMP_temperature;BMP_pressure;BME280_temperature;BME280_humidity;BME280_pressure;Samples;Min_cycle;Max_cycle;Signal;HPM_P1;HPM_P2
2022/08/28 00:02:02;;;;;;;7.87;6.97;;;19.50;99.90;;;;;;5116843;28;20457;-45
2022/08/28 00:04:29;;;;;;;8.30;6.33;;;19.50;99.90;;;;;;5117006;28;20462;-50
2022/08/28 00:06:56;;;;;;;9.50;6.47;;;19.50;99.90;;;;;;5116724;28;20437;-43
2022/08/28 00:09:25;;;;;;;9.03;6.30;;;19.40;99.90;;;;;;5116350;28;20476;-44
2022/08/28 00:11:52;;;;;;;11.40;6.80;;;19.40;99.90;;;;;;5116850;28;20441;-55
2022/08/28 00:14:19;;;;;;;11.23;6.73;;;19.40;99.90;;;;;;5116500;28;20457;-52
2022/08/28 00:16:51;;;;;;;12.00;6.90;;;19.30;99.90;;;;;;5117090;28;20516;-48
2022/08/28 00:19:18;;;;;;;9.60;6.57;;;19.40;99.90;;;;;;5115915;28;20456;-49
2022/08/28 00:21:46;;;;;;;11.23;6.73;;;19.40;99.90;;;;;;5116415;28;20434;-43
2022/08/28 00:24:14;;;;;;;12.03;6.50;;;19.30;99.90;;;;;;5116111;28;20469;-47
2022/08/28 00:29:27;;;;;;;9.13;7.20;;;19.30;99.90;;;;;;5116519;28;20417;-48
2022/08/28 00:31:56;;;;;;;9.73;6.07;;;19.30;99.90;;;;;;5116397;28;20660;-54
2022/08/28 00:34:23;;;;;;;14.80;5.80;;;19.40;99.90;;;;;;5116242;28;20437;-44
2022/08/28 00:36:50;;;;;;;8.63;6.07;;;19.40;99.90;;;;;;5116382;28;20485;-45
2022/08/28 00:39:17;;;;;;;8.50;6.30;;;19.40;99.90;;;;;;5115797;28;20513;-50
2022/08/28 00:41:44;;;;;;;11.53;7.60;;;19.40;99.90;;;;;;5116293;28;20446;-48
2022/08/28 00:44:13;;;;;;;10.70;5.73;;;19.40;99.90;;;;;;5116081;28;20473;-43
2022/08/28 00:46:41;;;;;;;7.27;5.50;;;19.40;99.90;;;;;;5115553;28;20425;-46
2022/08/28 00:49:10;;;;;;;6.30;5.23;;;19.40;99.90;;;;;;5116268;28;20476;-48
2022/08/28 00:54:23;;;;;;;6.10;5.30;;;19.30;99.90;;;;;;5116092;28;20878;-43
2022/08/28 00:56:52;;;;;;;8.43;4.90;;;19.30;99.90;;;;;;5116128;28;20458;-46
2022/08/28 00:59:22;;;;;;;9.83;5.17;;;19.20;99.90;;;;;;5115686;28;20465;-47
2022/08/28 01:01:52;;;;;;;7.53;4.50;;;19.20;99.90;;;;;;5115676;28;20418;-50
2022/08/28 01:04:25;;;;;;;6.40;4.40;;;19.20;99.90;;;;;;5116259;28;20501;-49
2022/08/28 01:06:55;;;;;;;11.40;4.27;;;19.20;99.90;;;;;;5119397;28;20425;-51
2022/08/28 01:09:23;;;;;;;7.97;4.87;;;19.20;99.90;;;;;;5120038;28;20457;-44
2022/08/28 01:11:52;;;;;;;8.53;4.80;;;19.20;99.90;;;;;;5120124;28;20483;-53
2022/08/28 01:14:22;;;;;;;6.13;4.47;;;19.20;99.90;;;;;;5119904;28;20453;-48
2022/08/28 01:16:54;;;;;;;9.73;3.90;;;19.20;99.90;;;;;;5120410;28;20485;-47
2022/08/28 01:19:32;;;;;;;7.87;4.40;;;19.10;99.90;;;;;;5119747;28;20402;-47
2022/08/28 01:22:12;;;;;;;8.37;4.37;;;19.10;99.90;;;;;;5119672;28;20425;-53
2022/08/28 01:24:41;;;;;;;9.10;3.80;;;19.10;99.90;;;;;;5119806;28;20497;-50
2022/08/28 01:27:08;;;;;;;8.03;4.80;;;19.10;99.90;;;;;;5119402;28;20437;-37
2022/08/28 01:29:35;;;;;;;7.50;4.70;;;19.10;99.90;;;;;;5119671;28;20438;-42
2022/08/28 01:32:02;;;;;;;6.40;4.30;;;19.10;99.90;;;;;;5120033;28;20472;-37
2022/08/28 01:34:30;;;;;;;6.23;4.43;;;19.10;99.90;;;;;;5120089;28;20527;-46
2022/08/28 01:36:57;;;;;;;6.27;4.33;;;19.10;99.90;;;;;;5119103;28;20514;-49
2022/08/28 01:39:25;;;;;;;6.80;5.03;;;19.10;99.90;;;;;;5119374;28;20456;-45
2022/08/28 01:41:55;;;;;;;8.97;5.40;;;19.10;99.90;;;;;;5119350;28;20431;-43
2022/08/28 01:44:25;;;;;;;7.53;5.23;;;19.00;99.90;;;;;;5119395;28;20437;-47
2022/08/28 01:46:56;;;;;;;8.73;4.23;;;19.10;99.90;;;;;;5119533;28;20473;-47
2022/08/28 01:49:28;;;;;;;8.80;5.40;;;19.10;99.90;;;;;;5119325;28;20528;-40
2022/08/28 01:51:56;;;;;;;10.10;6.87;;;19.10;99.90;;;;;;5119671;28;20436;-52
2022/08/28 01:54:24;;;;;;;8.73;6.20;;;19.10;99.90;;;;;;5118999;28;20453;-46
2022/08/28 01:56:52;;;;;;;8.57;6.70;;;19.00;99.90;;;;;;5119201;28;20429;-47
2022/08/28 01:59:20;;;;;;;11.07;6.57;;;19.00;99.90;;;;;;5119256;28;20507;-47
2022/08/28 02:01:47;;;;;;;12.37;7.67;;;19.00;99.90;;;;;;5119178;28;20464;-43
2022/08/28 02:04:18;;;;;;;11.30;7.30;;;19.00;99.90;;;;;;5119264;28;20426;-42
2022/08/28 02:06:45;;;;;;;12.80;7.20;;;19.10;99.90;;;;;;5118779;28;20420;-44
2022/08/28 02:09:11;;;;;;;9.20;6.77;;;19.10;99.90;;;;;;5119699;28;20422;-41
2022/08/28 02:11:41;;;;;;;14.30;7.00;;;19.10;99.90;;;;;;5119042;28;20441;-46
2022/08/28 02:14:10;;;;;;;12.30;7.40;;;19.10;99.90;;;;;;5118849;28;20475;-50
2022/08/28 02:16:37;;;;;;;13.20;7.73;;;19.10;99.90;;;;;;5118404;28;20449;-56
2022/08/28 02:19:04;;;;;;;11.37;7.50;;;19.10;99.90;;;;;;5118843;28;20450;-52
2022/08/28 02:21:31;;;;;;;9.20;6.93;;;19.20;99.90;;;;;;5118826;28;20483;-52
2022/08/28 02:23:58;;;;;;;21.13;9.00;;;19.20;99.90;;;;;;5118299;28;20445;-52
2022/08/28 02:26:25;;;;;;;11.87;8.30;;;19.10;99.90;;;;;;5118824;28;20477;-44
2022/08/28 02:28:52;;;;;;;10.73;7.43;;;19.10;99.90;;;;;;5118701;28;20422;-56
2022/08/28 02:31:20;;;;;;;11.70;7.33;;;19.10;99.90;;;;;;5118160;28;20472;-57
2022/08/28 02:33:47;;;;;;;15.50;7.73;;;19.10;99.90;;;;;;5118256;28;20458;-51
2022/08/28 02:36:18;;;;;;;10.67;8.13;;;19.10;99.90;;;;;;5117804;28;20449;-45
2022/08/28 02:38:46;;;;;;;11.50;8.50;;;19.10;99.90;;;;;;5118369;28;20462;-62
2022/08/28 02:41:15;;;;;;;14.13;8.13;;;19.10;99.90;;;;;;5117335;28;20459;-58
2022/08/28 02:43:42;;;;;;;13.27;8.27;;;19.20;99.90;;;;;;5117377;28;20449;-59
2022/08/28 02:46:09;;;;;;;10.07;7.63;;;19.20;99.90;;;;;;5117219;28;20478;-54
2022/08/28 02:48:41;;;;;;;11.13;7.93;;;19.10;99.90;;;;;;5117002;28;20499;-57
2022/08/28 02:51:11;;;;;;;11.23;8.20;;;19.20;99.90;;;;;;5117448;28;20441;-56
2022/08/28 02:53:39;;;;;;;12.63;8.00;;;19.20;99.90;;;;;;5117367;28;20460;-47
2022/08/28 02:56:07;;;;;;;12.50;8.90;;;19.10;99.90;;;;;;5116938;28;20534;-63
2022/08/28 02:58:34;;;;;;;9.97;7.30;;;19.10;99.90;;;;;;5117472;28;20434;-62
2022/08/28 03:01:01;;;;;;;9.63;7.33;;;19.10;99.90;;;;;;5116985;28;20489;-51
2022/08/28 03:03:31;;;;;;;8.57;6.90;;;19.00;99.90;;;;;;5117011;28;20450;-56
2022/08/28 03:05:59;;;;;;;11.03;6.93;;;19.00;99.90;;;;;;5117759;28;20469;-62
2022/08/28 03:08:31;;;;;;;16.67;7.03;;;19.00;99.90;;;;;;5116807;28;20441;-59
2022/08/28 03:10:58;;;;;;;9.87;5.50;;;18.90;99.90;;;;;;5116617;28;20483;-59
2022/08/28 03:13:28;;;;;;;8.83;6.10;;;18.90;99.90;;;;;;5116609;28;20464;-56
2022/08/28 03:15:56;;;;;;;11.57;6.77;;;18.90;99.90;;;;;;5116715;28;20410;-55
2022/08/28 03:18:28;;;;;;;8.03;5.80;;;18.90;99.90;;;;;;5116981;28;20442;-63
2022/08/28 03:20:56;;;;;;;12.20;6.30;;;18.80;99.90;;;;;;5116735;28;20459;-59
2022/08/28 03:23:28;;;;;;;8.90;6.23;;;18.80;99.90;;;;;;5116904;28;20449;-64
2022/08/28 03:25:58;;;;;;;8.90;5.33;;;18.80;99.90;;;;;;5117021;28;20525;-55
2022/08/28 03:28:29;;;;;;;7.73;5.40;;;18.80;99.90;;;;;;5117133;28;20473;-51
2022/08/28 03:30:56;;;;;;;13.53;5.30;;;18.80;99.90;;;;;;5116437;28;20457;-53
2022/08/28 03:33:23;;;;;;;7.70;5.00;;;18.70;99.90;;;;;;5117475;28;20511;-54
2022/08/28 03:35:50;;;;;;;7.90;5.40;;;18.70;99.90;;;;;;5117463;28;20448;-55
2022/08/28 03:38:18;;;;;;;8.00;5.00;;;18.70;99.90;;;;;;5117545;28;20505;-50
2022/08/28 03:40:50;;;;;;;7.80;5.50;;;18.60;99.90;;;;;;5117667;28;20464;-56
2022/08/28 03:43:20;;;;;;;6.00;4.80;;;18.70;99.90;;;;;;5117811;28;20475;-49
2022/08/28 03:45:59;;;;;;;8.70;5.20;;;18.60;99.90;;;;;;5117033;28;20560;-57
2022/08/28 03:48:30;;;;;;;7.60;4.93;;;18.70;99.90;;;;;;5117360;28;20489;-55
2022/08/28 03:50:58;;;;;;;8.13;4.80;;;18.60;99.90;;;;;;5117830;28;20456;-57
2022/08/28 03:53:28;;;;;;;8.30;4.93;;;18.60;99.90;;;;;;5118083;28;20448;-52
2022/08/28 03:55:57;;;;;;;12.83;4.67;;;18.50;99.90;;;;;;5117513;28;20466;-57
2022/08/28 03:58:24;;;;;;;5.83;4.60;;;18.50;99.90;;;;;;5117149;28;20461;-58
2022/08/28 04:00:51;;;;;;;9.00;4.63;;;18.50;99.90;;;;;;5117412;28;20454;-49
2022/08/28 04:03:21;;;;;;;4.00;3.60;;;18.50;99.90;;;;;;5117001;28;20465;-53
2022/08/28 04:05:51;;;;;;;7.03;3.93;;;18.50;99.90;;;;;;5117357;28;20495;-56
2022/08/28 04:08:19;;;;;;;6.93;4.50;;;18.50;99.90;;;;;;5117436;28;20449;-57
2022/08/28 04:10:54;;;;;;;10.10;4.70;;;18.40;99.90;;;;;;5117506;28;20452;-59
2022/08/28 04:13:23;;;;;;;7.07;4.13;;;18.40;99.90;;;;;;5117221;28;20524;-56
2022/08/28 04:15:58;;;;;;;5.20;3.80;;;18.40;99.90;;;;;;5117272;28;20421;-54
2022/08/28 04:18:25;;;;;;;6.10;4.13;;;18.40;99.90;;;;;;5116943;28;20484;-57
2022/08/28 04:20:59;;;;;;;7.93;3.97;;;18.40;99.90;;;;;;5116995;28;20438;-54
2022/08/28 04:23:25;;;;;;;7.83;4.77;;;18.30;99.90;;;;;;5117395;28;20445;-53
2022/08/28 04:25:52;;;;;;;8.83;4.20;;;18.30;99.90;;;;;;5117387;28;20461;-56
2022/08/28 04:28:24;;;;;;;9.30;4.47;;;18.30;99.90;;;;;;5117625;28;20465;-52
2022/08/28 04:30:53;;;;;;;5.07;3.77;;;18.40;99.90;;;;;;5117063;28;20438;-52
2022/08/28 04:33:21;;;;;;;7.93;3.40;;;18.40;99.90;;;;;;5116908;28;20465;-56
2022/08/28 04:35:48;;;;;;;5.67;3.60;;;18.40;99.90;;;;;;5116966;28;20457;-55
2022/08/28 04:38:16;;;;;;;6.73;4.00;;;18.40;99.90;;;;;;5116914;28;20461;-54
2022/08/28 04:40:42;;;;;;;4.70;3.27;;;18.40;99.90;;;;;;5116690;28;20517;-61
2022/08/28 04:43:10;;;;;;;6.50;3.50;;;18.40;99.90;;;;;;5117289;28;20457;-57
2022/08/28 04:45:44;;;;;;;5.37;3.50;;;18.40;99.90;;;;;;5117087;28;20473;-60
2022/08/28 04:48:13;;;;;;;6.40;2.50;;;18.30;99.90;;;;;;5117021;28;20516;-57
2022/08/28 04:50:41;;;;;;;6.27;3.43;;;18.30;99.90;;;;;;5117117;28;20483;-56
2022/08/28 04:53:08;;;;;;;5.43;2.80;;;18.30;99.90;;;;;;5117137;28;20448;-52
2022/08/28 04:55:42;;;;;;;6.50;4.53;;;18.30;99.90;;;;;;5117081;28;20473;-50
2022/08/28 04:58:11;;;;;;;7.00;3.53;;;18.30;99.90;;;;;;5117010;28;21005;-53
2022/08/28 05:00:45;;;;;;;4.60;2.93;;;18.30;99.90;;;;;;5116671;28;20433;-55
2022/08/28 05:03:13;;;;;;;16.50;3.50;;;18.20;99.90;;;;;;5116386;28;20480;-53
2022/08/28 05:05:41;;;;;;;3.70;3.10;;;18.20;99.90;;;;;;5116443;28;20481;-51
2022/08/28 05:08:08;;;;;;;6.47;3.50;;;18.20;99.90;;;;;;5116681;28;20473;-57
2022/08/28 05:10:41;;;;;;;13.70;3.70;;;18.20;99.90;;;;;;5116158;28;20457;-56
2022/08/28 05:13:10;;;;;;;7.77;3.20;;;18.30;99.90;;;;;;5116147;28;20471;-55
2022/08/28 05:15:40;;;;;;;6.00;3.40;;;18.30;99.90;;;;;;5090466;28;20454;-64
2022/08/28 05:18:09;;;;;;;5.40;3.40;;;18.30;99.90;;;;;;5087836;28;20481;-63
2022/08/28 05:20:37;;;;;;;9.97;3.53;;;18.20;99.90;;;;;;5081955;28;20489;-62
2022/08/28 05:23:04;;;;;;;6.20;2.53;;;18.20;99.90;;;;;;5087124;28;20476;-62
2022/08/28 05:25:38;;;;;;;6.87;3.60;;;18.20;99.90;;;;;;5087926;28;20560;-58
2022/08/28 05:28:06;;;;;;;4.67;4.10;;;18.20;99.90;;;;;;5086674;28;20496;-58
2022/08/28 05:30:37;;;;;;;8.00;4.47;;;18.20;99.90;;;;;;5086515;28;20459;-62
2022/08/28 05:33:06;;;;;;;5.73;2.70;;;18.20;99.90;;;;;;5083257;28;20461;-62
2022/08/28 05:35:39;;;;;;;7.17;3.40;;;18.20;99.90;;;;;;5094235;28;20494;-62
2022/08/28 05:38:07;;;;;;;6.50;3.03;;;18.10;99.90;;;;;;5097627;28;20548;-62
2022/08/28 05:40:39;;;;;;;4.77;2.90;;;18.10;99.90;;;;;;5092479;28;20444;-62
2022/08/28 05:43:09;;;;;;;11.33;3.27;;;18.20;99.90;;;;;;5098219;28;20481;-62
2022/08/28 05:45:36;;;;;;;5.87;3.50;;;18.20;99.90;;;;;;5097217;28;20465;-62
2022/08/28 05:48:05;;;;;;;4.60;2.60;;;18.30;99.90;;;;;;5097054;28;20468;-57
2022/08/28 05:50:32;;;;;;;14.90;3.33;;;18.30;99.90;;;;;;5098254;28;20455;-61
2022/08/28 05:53:02;;;;;;;7.07;2.67;;;18.30;99.90;;;;;;5099062;28;20461;-62
2022/08/28 05:55:29;;;;;;;10.87;2.20;;;18.30;99.90;;;;;;5100197;28;20433;-58
2022/08/28 05:58:27;;;;;;;10.33;3.63;;;18.30;99.90;;;;;;5099608;28;20469;-62
2022/08/28 06:00:46;;;;;;;4.10;2.43;;;18.30;99.90;;;;;;5100301;28;20429;-61
2022/08/28 06:03:14;;;;;;;5.00;3.10;;;18.40;99.90;;;;;;5100595;28;20467;-61
2022/08/28 06:05:41;;;;;;;9.13;2.70;;;18.50;99.90;;;;;;5101141;28;20445;-57
2022/08/28 06:08:08;;;;;;;8.67;3.03;;;18.40;99.90;;;;;;5100899;28;20553;-62
2022/08/28 06:10:36;;;;;;;5.33;2.97;;;18.50;99.90;;;;;;5100572;28;20460;-62
2022/08/28 06:13:03;;;;;;;7.97;3.20;;;18.50;99.90;;;;;;5100664;28;20468;-61
2022/08/28 06:15:30;;;;;;;3.93;2.73;;;18.40;99.90;;;;;;5101178;28;20777;-62
2022/08/28 06:17:56;;;;;;;10.53;3.30;;;18.30;99.90;;;;;;5100578;28;20445;-61
2022/08/28 06:20:25;;;;;;;7.47;3.40;;;18.20;99.90;;;;;;5098537;28;20442;-61
2022/08/28 06:22:54;;;;;;;5.57;3.30;;;18.30;99.90;;;;;;5104965;28;20460;-63
2022/08/28 06:25:21;;;;;;;14.03;3.70;;;18.30;99.90;;;;;;5102935;28;20834;-62
2022/08/28 06:27:47;;;;;;;9.20;3.60;;;18.30;99.90;;;;;;5103036;28;20483;-59
2022/08/28 06:30:14;;;;;;;7.53;3.20;;;18.40;99.90;;;;;;5104892;28;20501;-57
2022/08/28 06:32:41;;;;;;;6.50;3.50;;;18.50;99.90;;;;;;5104544;28;20508;-62
2022/08/28 06:35:08;;;;;;;13.67;3.00;;;18.50;99.90;;;;;;5104315;28;20450;-63
2022/08/28 06:37:36;;;;;;;4.97;3.40;;;18.50;99.90;;;;;;5104248;28;20917;-61
2022/08/28 06:40:04;;;;;;;19.50;3.93;;;18.60;99.90;;;;;;5104623;28;20521;-62
2022/08/28 06:42:31;;;;;;;9.30;4.30;;;18.70;99.90;;;;;;5105851;28;20455;-63
2022/08/28 06:44:58;;;;;;;9.43;3.57;;;18.80;99.90;;;;;;5104741;28;20537;-61
2022/08/28 06:47:25;;;;;;;9.97;3.07;;;18.90;99.90;;;;;;5104240;28;20481;-64
2022/08/28 06:49:53;;;;;;;7.50;3.20;;;19.00;99.90;;;;;;5103887;28;20806;-61
2022/08/28 06:52:20;;;;;;;4.37;2.40;;;19.10;99.90;;;;;;5105423;28;20778;-62
2022/08/28 06:54:48;;;;;;;7.50;3.10;;;19.30;99.90;;;;;;5100418;28;20465;-63
2022/08/28 06:57:18;;;;;;;4.40;3.30;;;19.30;99.90;;;;;;5103257;28;20444;-34
2022/08/28 06:59:45;;;;;;;7.60;3.50;;;19.30;99.90;;;;;;5107567;28;20445;-56
2022/08/28 07:02:12;;;;;;;7.00;3.47;;;19.30;99.90;;;;;;5099637;28;20534;-62
2022/08/28 07:04:39;;;;;;;7.03;3.67;;;19.40;99.90;;;;;;5096577;28;20471;-63
2022/08/28 07:07:07;;;;;;;13.07;3.70;;;19.40;99.90;;;;;;5097527;28;20576;-63
2022/08/28 07:09:34;;;;;;;7.50;3.93;;;19.40;99.90;;;;;;5095084;28;20434;-64
2022/08/28 07:12:03;;;;;;;7.70;3.23;;;19.50;99.90;;;;;;5091235;28;20442;-63
2022/08/28 07:14:30;;;;;;;14.23;3.80;;;19.60;99.90;;;;;;5097187;28;20466;-62
2022/08/28 07:16:57;;;;;;;8.20;3.90;;;19.60;99.90;;;;;;5095010;28;20440;-63
2022/08/28 07:19:24;;;;;;;14.90;5.37;;;19.60;99.90;;;;;;5096280;28;20485;-53
2022/08/28 07:21:51;;;;;;;8.87;2.80;;;19.60;99.90;;;;;;5091799;28;20754;-65
2022/08/28 07:24:18;;;;;;;33.50;17.70;;;19.70;99.90;;;;;;5088701;28;20489;-59
2022/08/28 07:26:47;;;;;;;23.07;11.67;;;19.90;99.90;;;;;;5091403;28;20585;-59
2022/08/28 07:29:15;;;;;;;10.73;4.70;;;19.90;99.90;;;;;;5094979;28;20449;-60
2022/08/28 07:31:45;;;;;;;12.07;3.63;;;19.90;99.90;;;;;;5095618;28;20446;-54
2022/08/28 07:34:14;;;;;;;7.73;3.90;;;20.00;99.90;;;;;;5097711;28;20444;-62
2022/08/28 07:36:41;;;;;;;11.90;4.37;;;20.00;99.90;;;;;;5094895;28;20948;-62
2022/08/28 07:39:09;;;;;;;12.03;3.77;;;20.00;99.90;;;;;;5099461;28;20495;-62
2022/08/28 07:41:39;;;;;;;10.50;4.83;;;20.00;99.90;;;;;;5093257;28;20430;-62
2022/08/28 07:46:55;;;;;;;7.60;3.37;;;20.00;99.90;;;;;;5093397;28;20457;-62
2022/08/28 07:49:22;;;;;;;6.03;3.30;;;20.00;99.90;;;;;;5101088;28;20454;-63
2022/08/28 07:51:49;;;;;;;6.77;4.40;;;20.10;99.90;;;;;;5100954;28;20445;-62
2022/08/28 07:54:17;;;;;;;5.57;4.27;;;20.20;99.90;;;;;;5095580;28;20454;-63
2022/08/28 07:56:43;;;;;;;5.30;2.97;;;20.30;99.90;;;;;;5098020;28;20438;-66
2022/08/28 07:59:12;;;;;;;4.43;2.90;;;20.30;99.90;;;;;;5097179;28;20441;-60
2022/08/28 08:01:42;;;;;;;9.03;4.00;;;20.30;99.90;;;;;;5096612;28;20789;-64
2022/08/28 08:04:12;;;;;;;4.93;3.10;;;20.60;99.90;;;;;;5096509;28;20441;-63
2022/08/28 08:06:40;;;;;;;4.37;3.97;;;21.00;99.90;;;;;;5096719;28;20480;-66
2022/08/28 08:09:12;;;;;;;6.03;2.90;;;21.50;99.90;;;;;;5083067;28;20437;-62
2022/08/28 08:11:39;;;;;;;6.17;3.20;;;22.00;99.90;;;;;;5096001;28;20445;-65
2022/08/28 08:14:06;;;;;;;5.73;3.20;;;22.60;99.90;;;;;;5095992;28;20521;-62
2022/08/28 08:16:37;;;;;;;5.20;4.40;;;23.40;99.90;;;;;;5094129;28;20555;-65
2022/08/28 08:19:05;;;;;;;4.77;2.97;;;24.50;99.90;;;;;;5097349;28;20449;-64
2022/08/28 08:21:33;;;;;;;9.40;3.47;;;25.80;99.90;;;;;;5096299;28;20472;-64
2022/08/28 08:24:00;;;;;;;7.47;2.80;;;26.80;99.90;;;;;;5095069;28;20469;-61
2022/08/28 08:26:28;;;;;;;4.20;2.43;;;27.50;99.90;;;;;;5094858;28;20579;-59
2022/08/28 08:28:55;;;;;;;6.20;3.70;;;27.40;99.90;;;;;;5095198;28;20930;-63
2022/08/28 08:31:25;;;;;;;4.80;3.10;;;26.40;99.90;;;;;;5094964;28;20458;-62
2022/08/28 08:33:55;;;;;;;5.90;3.43;;;25.60;99.90;;;;;;5095454;28;20465;-63
2022/08/28 08:36:23;;;;;;;4.90;3.17;;;25.10;99.90;;;;;;5095140;28;20571;-62
2022/08/28 08:38:53;;;;;;;3.70;3.00;;;24.70;99.90;;;;;;5095026;28;20445;-64
2022/08/28 08:41:24;;;;;;;7.63;2.90;;;24.30;99.90;;;;;;5094976;28;20554;-62
2022/08/28 08:43:57;;;;;;;9.67;3.80;;;23.60;99.90;;;;;;5094823;28;20485;-63
2022/08/28 08:46:31;;;;;;;4.10;2.80;;;22.90;99.90;;;;;;5094838;28;20457;-63
2022/08/28 08:49:02;;;;;;;7.00;3.07;;;22.60;99.90;;;;;;5095466;28;20433;-62
2022/08/28 08:51:41;;;;;;;4.43;3.00;;;22.20;99.90;;;;;;5095365;28;20932;-63
2022/08/28 08:54:12;;;;;;;5.67;3.37;;;22.00;99.90;;;;;;5095946;28;20437;-65
2022/08/28 08:56:42;;;;;;;5.87;3.50;;;21.90;99.90;;;;;;5095456;28;20476;-63
2022/08/28 08:59:12;;;;;;;7.00;3.70;;;21.60;99.90;;;;;;5095265;28;20964;-63
2022/08/28 09:01:44;;;;;;;4.23;3.73;;;21.40;99.90;;;;;;5095623;28;20473;-63
2022/08/28 09:04:23;;;;;;;5.10;3.63;;;21.20;99.90;;;;;;5095996;28;20461;-64
2022/08/28 09:06:54;;;;;;;6.07;3.17;;;20.90;99.90;;;;;;5096053;28;20509;-65
2022/08/28 09:09:29;;;;;;;11.93;5.30;;;20.70;99.90;;;;;;5096475;28;20425;-64
2022/08/28 09:11:58;;;;;;;8.00;3.20;;;20.80;99.90;;;;;;5095925;28;20785;-63
2022/08/28 09:14:35;;;;;;;5.80;4.30;;;21.00;99.90;;;;;;5095159;28;20453;-63
2022/08/28 09:17:03;;;;;;;4.83;3.43;;;21.10;99.90;;;;;;5095280;28;20461;-63
2022/08/28 09:19:30;;;;;;;10.20;3.80;;;20.90;99.90;;;;;;5095239;28;20446;-62
2022/08/28 09:21:57;;;;;;;11.33;4.37;;;20.90;99.90;;;;;;5095227;28;20469;-58
2022/08/28 09:24:28;;;;;;;6.13;4.70;;;20.70;99.90;;;;;;5095350;28;20454;-63
2022/08/28 09:26:58;;;;;;;5.10;3.97;;;20.60;99.90;;;;;;5095208;28;21001;-63
2022/08/28 09:29:29;;;;;;;7.53;3.73;;;20.50;99.90;;;;;;5099350;28;20442;-62
2022/08/28 09:31:56;;;;;;;6.63;4.00;;;20.40;99.90;;;;;;5098785;28;20476;-63
2022/08/28 09:34:30;;;;;;;7.70;4.67;;;20.30;99.90;;;;;;5098865;28;20457;-63
2022/08/28 09:36:59;;;;;;;8.00;4.23;;;20.30;99.90;;;;;;5098696;28;20484;-63
2022/08/28 09:39:29;;;;;;;6.73;4.20;;;20.20;99.90;;;;;;5099216;28;20441;-64
2022/08/28 09:44:59;;;;;;;7.30;4.70;;;20.30;99.90;;;;;;5098919;28;20421;-63
2022/08/28 09:47:41;;;;;;;4.97;4.43;;;20.30;99.90;;;;;;5099003;28;20548;-60
2022/08/28 09:50:28;;;;;;;5.93;4.33;;;20.40;99.90;;;;;;5098545;28;20495;-62
2022/08/28 09:52:57;;;;;;;5.20;4.07;;;20.40;99.90;;;;;;5098706;28;20425;-63
2022/08/28 09:55:44;;;;;;;6.63;3.57;;;20.30;99.90;;;;;;5099103;28;20456;-63
2022/08/28 09:58:11;;;;;;;11.17;4.77;;;20.40;99.90;;;;;;5099024;28;20416;-61
2022/08/28 10:00:43;;;;;;;10.30;5.10;;;20.40;99.90;;;;;;5098826;28;20469;-63
2022/08/28 10:03:17;;;;;;;6.07;3.80;;;20.50;99.90;;;;;;5098620;28;20514;-63
2022/08/28 10:05:58;;;;;;;5.67;3.40;;;20.40;99.90;;;;;;5098682;28;20425;-56
2022/08/28 10:08:42;;;;;;;9.77;3.90;;;20.40;99.90;;;;;;5098755;28;20480;-62
2022/08/28 10:11:21;;;;;;;7.53;4.40;;;20.50;99.90;;;;;;5098177;28;20469;-56
2022/08/28 10:13:58;;;;;;;5.43;3.50;;;20.60;99.90;;;;;;5098580;28;20790;-64
2022/08/28 10:16:35;;;;;;;11.73;3.77;;;20.50;99.90;;;;;;5098178;28;20473;-63
2022/08/28 10:19:09;;;;;;;6.13;4.27;;;20.40;99.90;;;;;;5099030;28;20498;-63
2022/08/28 10:21:43;;;;;;;12.43;4.27;;;20.30;99.90;;;;;;5099939;28;20464;-65
2022/08/28 10:24:33;;;;;;;8.37;4.70;;;20.30;99.90;;;;;;5099339;28;20449;-57
2022/08/28 10:27:11;;;;;;;7.53;4.30;;;20.30;99.90;;;;;;5100025;28;20483;-51
2022/08/28 10:29:49;;;;;;;6.40;4.80;;;20.40;99.90;;;;;;5100589;28;20422;-54
2022/08/28 10:32:47;;;;;;;8.20;4.57;;;20.40;99.90;;;;;;5100365;28;20480;-51
2022/08/28 10:35:21;;;;;;;10.03;4.83;;;20.30;99.90;;;;;;5100058;28;20437;-53
2022/08/28 10:38:01;;;;;;;8.50;4.87;;;20.20;99.90;;;;;;5099604;28;20487;-56
2022/08/28 10:40:33;;;;;;;6.13;4.30;;;20.10;99.90;;;;;;5099791;28;20441;-49
2022/08/28 10:43:07;;;;;;;6.80;4.70;;;20.00;99.90;;;;;;5100436;28;20430;-54
2022/08/28 10:45:34;;;;;;;11.57;4.50;;;20.00;99.90;;;;;;5099830;28;20494;-54
2022/08/28 10:48:08;;;;;;;8.97;5.10;;;20.10;99.90;;;;;;5099284;28;20489;-55
2022/08/28 10:50:49;;;;;;;8.80;5.03;;;20.10;99.90;;;;;;5099791;28;20430;-57
2022/08/28 10:53:19;;;;;;;6.43;4.17;;;20.10;99.90;;;;;;5099859;28;20439;-55
2022/08/28 10:55:53;;;;;;;10.30;5.30;;;20.10;99.90;;;;;;5099875;28;20442;-56
2022/08/28 10:58:26;;;;;;;7.10;4.83;;;20.20;99.90;;;;;;5100207;28;20429;-56
2022/08/28 11:00:55;;;;;;;7.00;4.73;;;20.10;99.90;;;;;;5099585;28;20430;-54
2022/08/28 11:03:25;;;;;;;9.13;4.37;;;20.10;99.90;;;;;;5099752;28;20452;-53
2022/08/28 11:05:56;;;;;;;6.67;5.63;;;20.10;99.90;;;;;;5100201;28;20933;-55
2022/08/28 11:08:27;;;;;;;5.97;4.07;;;20.10;99.90;;;;;;5099289;28;20481;-56
2022/08/28 11:10:56;;;;;;;6.50;4.27;;;20.10;99.90;;;;;;5098986;28;20450;-55
2022/08/28 11:13:47;;;;;;;7.37;4.00;;;20.10;99.90;;;;;;5099199;28;20459;-55
2022/08/28 11:16:20;;;;;;;5.90;4.83;;;20.00;99.90;;;;;;5099109;28;20545;-56
2022/08/28 11:19:23;;;;;;;6.80;4.53;;;20.00;99.90;;;;;;5099232;28;20440;-55
2022/08/28 11:21:53;;;;;;;6.93;4.90;;;20.00;99.90;;;;;;5067899;28;20468;-60
2022/08/28 11:24:31;;;;;;;6.30;4.80;;;20.00;99.90;;;;;;5099537;28;20532;-55
2022/08/28 11:27:06;;;;;;;7.00;4.87;;;20.00;99.90;;;;;;5099264;28;20461;-59
2022/08/28 11:29:58;;;;;;;8.80;4.50;;;19.90;99.90;;;;;;5098819;28;20425;-58
2022/08/28 11:32:56;;;;;;;8.47;4.33;;;19.80;99.90;;;;;;5099009;28;20469;-50
2022/08/28 11:35:48;;;;;;;5.53;4.13;;;19.80;99.90;;;;;;5099402;28;20434;-52
2022/08/28 11:38:48;;;;;;;13.53;5.50;;;19.80;99.90;;;;;;5099069;28;20531;-55
2022/08/28 11:41:20;;;;;;;9.37;4.30;;;19.80;99.90;;;;;;5098834;28;20454;-53
2022/08/28 11:43:48;;;;;;;7.90;5.30;;;19.80;99.90;;;;;;5098378;28;20428;-56
2022/08/28 11:46:31;;;;;;;9.53;4.67;;;19.80;99.90;;;;;;5099041;28;20441;-54
2022/08/28 11:49:00;;;;;;;7.20;4.30;;;19.80;99.90;;;;;;5098416;28;20480;-56
2022/08/28 11:51:55;;;;;;;10.67;5.70;;;19.70;99.90;;;;;;5097534;28;20929;-53
2022/08/28 11:54:40;;;;;;;12.90;5.03;;;19.70;99.90;;;;;;5098112;28;20421;-52
2022/08/28 11:57:12;;;;;;;9.53;5.30;;;19.70;99.90;;;;;;5098727;28;20553;-52
2022/08/28 12:00:10;;;;;;;8.73;4.80;;;19.70;99.90;;;;;;5098565;28;20440;-53
2022/08/28 12:02:52;;;;;;;10.40;5.07;;;19.70;99.90;;;;;;5096174;28;20508;-49
2022/08/28 12:05:48;;;;;;;14.03;4.90;;;19.60;99.90;;;;;;5098521;28;20452;-51
2022/08/28 12:08:50;;;;;;;9.73;5.70;;;19.60;99.90;;;;;;5098191;28;20536;-50
2022/08/28 12:11:52;;;;;;;6.83;5.40;;;19.50;99.90;;;;;;5098434;28;20449;-59
2022/08/28 12:15:02;;;;;;;17.50;7.83;;;19.50;99.90;;;;;;5098043;28;20422;-49
2022/08/28 12:17:58;;;;;;;12.57;6.47;;;19.50;99.90;;;;;;5098361;28;20552;-53
2022/08/28 12:20:38;;;;;;;8.97;4.97;;;19.50;99.90;;;;;;5098481;28;20436;-52
2022/08/28 12:23:30;;;;;;;9.80;5.33;;;19.40;99.90;;;;;;5099079;28;20564;-57
2022/08/28 12:26:01;;;;;;;7.03;4.30;;;19.40;99.90;;;;;;5089488;28;20567;-52
2022/08/28 12:28:31;;;;;;;10.60;4.90;;;19.40;99.90;;;;;;5098287;28;20888;-56
2022/08/28 12:34:18;;;;;;;8.23;5.10;;;19.40;99.90;;;;;;5072752;28;20432;-56
2022/08/28 12:36:45;;;;;;;9.07;5.40;;;19.50;99.90;;;;;;5098151;28;20508;-56
2022/08/28 12:39:17;;;;;;;7.47;4.87;;;19.60;99.90;;;;;;5098277;28;20477;-51
2022/08/28 12:41:45;;;;;;;9.80;4.37;;;19.70;99.90;;;;;;5098076;28;20421;-58
2022/08/28 12:44:14;;;;;;;11.10;5.60;;;19.80;99.90;;;;;;5098048;28;20805;-48
2022/08/28 12:46:43;;;;;;;11.60;4.67;;;19.80;99.90;;;;;;5097774;28;20469;-56
2022/08/28 12:49:29;;;;;;;8.77;5.07;;;19.80;99.90;;;;;;5097508;28;20566;-52
2022/08/28 12:52:12;;;;;;;9.50;5.50;;;19.90;99.90;;;;;;5097508;28;20494;-53
2022/08/28 12:54:39;;;;;;;7.87;4.83;;;19.90;99.90;;;;;;5098117;28;20430;-53
2022/08/28 12:57:09;;;;;;;7.50;4.97;;;20.00;99.90;;;;;;5097643;28;20453;-53
2022/08/28 12:59:38;;;;;;;7.30;4.90;;;20.00;99.90;;;;;;5097755;28;20425;-55
2022/08/28 13:02:09;;;;;;;9.17;6.77;;;20.00;99.90;;;;;;5097235;28;20441;-55
2022/08/28 13:04:39;;;;;;;9.03;6.13;;;20.00;99.90;;;;;;5097934;28;20444;-55
2022/08/28 13:07:11;;;;;;;6.03;4.50;;;20.00;99.90;;;;;;5097882;28;20422;-52
2022/08/28 13:09:44;;;;;;;9.67;5.53;;;20.00;99.90;;;;;;5097956;28;20523;-53
2022/08/28 13:12:19;;;;;;;12.57;5.00;;;19.90;99.90;;;;;;5097996;28;20546;-52
2022/08/28 13:14:46;;;;;;;9.43;4.93;;;19.80;99.90;;;;;;5098453;28;20549;-56
2022/08/28 13:17:35;;;;;;;9.43;5.43;;;19.70;99.90;;;;;;5098130;28;20441;-56
2022/08/28 13:20:04;;;;;;;8.07;4.53;;;19.80;99.90;;;;;;5097658;28;20441;-55